createdAt,value
2017-10-03T00:01:43.062Z,99.50
2017-10-03T00:04:11.927Z,99.40
2017-10-03T00:06:41.547Z,99.60
2017-10-03T00:09:10.795Z,99.70
2017-10-03T00:11:39.623Z,99.70
2017-10-03T00:14:08.458Z,99.80
2017-10-03T00:16:37.334Z,99.70
2017-10-03T00:19:06.926Z,99.90
2017-10-03T00:21:36.517Z,99.90
2017-10-03T00:24:05.393Z,99.90
2017-10-03T00:26:34.903Z,99.90
2017-10-03T00:29:03.730Z,99.90
2017-10-03T00:31:34.243Z,99.70
2017-10-03T00:34:03.847Z,99.90
2017-10-03T00:36:32.670Z,99.70
2017-10-03T00:39:01.510Z,99.80
2017-10-03T00:41:30.346Z,99.80
2017-10-03T00:43:59.173Z,99.90
2017-10-03T00:46:28.010Z,99.90
2017-10-03T00:48:57.597Z,99.90
2017-10-03T00:51:26.182Z,99.90
2017-10-03T00:53:55.013Z,99.90
2017-10-03T00:56:23.150Z,99.90
2017-10-03T00:58:51.297Z,99.90
2017-10-03T01:01:20.121Z,99.90
2017-10-03T01:03:49.719Z,99.90
2017-10-03T01:06:18.279Z,99.90
2017-10-03T01:08:47.112Z,99.90
2017-10-03T01:11:16.356Z,98.90
2017-10-03T01:13:45.202Z,98.70
2017-10-03T01:16:14.840Z,98.00
2017-10-03T01:18:43.670Z,98.00
2017-10-03T01:21:12.503Z,98.00
2017-10-03T01:23:41.165Z,98.40
2017-10-03T01:26:09.835Z,98.80
2017-10-03T01:28:38.691Z,99.20
2017-10-03T01:31:07.530Z,99.20
2017-10-03T01:33:36.374Z,99.00
2017-10-03T01:36:05.203Z,99.00
2017-10-03T01:38:33.693Z,98.80
2017-10-03T01:41:02.531Z,99.00
2017-10-03T01:43:31.358Z,99.00
2017-10-03T01:46:00.185Z,99.20
2017-10-03T01:48:30.602Z,99.00
2017-10-03T01:50:59.437Z,99.00
2017-10-03T01:53:29.069Z,98.80
2017-10-03T01:55:57.634Z,99.00
2017-10-03T01:58:26.276Z,99.00
2017-10-03T02:00:55.709Z,98.30
2017-10-03T02:03:24.534Z,98.30
2017-10-03T02:05:53.195Z,98.30
2017-10-03T02:08:22.047Z,98.30
2017-10-03T02:10:50.877Z,98.40
2017-10-03T02:13:19.713Z,98.20
2017-10-03T02:15:48.552Z,98.10
2017-10-03T02:18:17.383Z,98.20
2017-10-03T02:20:46.485Z,98.10
2017-10-03T02:23:15.129Z,98.30
2017-10-03T02:25:43.958Z,98.30
2017-10-03T02:28:12.794Z,98.50
2017-10-03T02:30:41.624Z,98.60
2017-10-03T02:33:10.453Z,98.30
2017-10-03T02:35:40.057Z,97.80
2017-10-03T02:38:08.890Z,97.80
2017-10-03T02:40:38.651Z,97.60
2017-10-03T02:43:07.481Z,97.70
2017-10-03T02:45:36.121Z,97.90
2017-10-03T02:48:04.953Z,97.70
2017-10-03T02:50:33.792Z,97.40
2017-10-03T02:53:02.436Z,97.40
2017-10-03T02:55:31.264Z,97.40
2017-10-03T02:58:00.089Z,97.50
2017-10-03T03:00:29.695Z,97.60
2017-10-03T03:02:59.110Z,97.60
2017-10-03T03:05:28.705Z,97.60
2017-10-03T03:07:58.309Z,97.70
2017-10-03T03:10:27.138Z,97.70
2017-10-03T03:12:55.990Z,97.80
2017-10-03T03:15:25.251Z,97.70
2017-10-03T03:17:54.093Z,97.70
2017-10-03T03:20:23.698Z,97.60
2017-10-03T03:22:53.298Z,97.90
2017-10-03T03:25:22.128Z,97.90
2017-10-03T03:27:50.962Z,98.20
2017-10-03T03:30:19.804Z,98.10
2017-10-03T03:32:48.638Z,97.80
2017-10-03T03:35:17.484Z,97.60
2017-10-03T03:37:46.330Z,97.70
2017-10-03T03:40:15.186Z,98.00
2017-10-03T03:42:44.023Z,98.20
2017-10-03T03:45:13.630Z,98.30
2017-10-03T03:47:42.458Z,98.30
2017-10-03T03:50:11.297Z,98.50
2017-10-03T03:52:40.135Z,98.60
2017-10-03T03:55:08.781Z,98.50
2017-10-03T03:57:37.619Z,98.50
2017-10-03T04:00:06.435Z,98.80
2017-10-03T04:02:35.280Z,98.50
2017-10-03T04:05:04.174Z,98.40
2017-10-03T04:07:33.763Z,98.10
2017-10-03T04:10:02.590Z,98.10
2017-10-03T04:12:31.425Z,98.10
2017-10-03T04:15:00.266Z,98.00
2017-10-03T04:17:28.913Z,97.90
2017-10-03T04:19:58.446Z,97.90
2017-10-03T04:22:28.048Z,98.20
2017-10-03T04:24:56.877Z,98.20
2017-10-03T04:27:25.718Z,98.30
2017-10-03T04:29:55.317Z,98.50
2017-10-03T04:32:24.146Z,98.20
2017-10-03T04:34:52.982Z,98.30
2017-10-03T04:37:21.818Z,98.40
2017-10-03T04:39:50.654Z,98.00
2017-10-03T04:42:20.367Z,98.20
2017-10-03T04:44:49.211Z,98.40
2017-10-03T04:47:18.046Z,98.50
2017-10-03T04:49:46.885Z,98.40
2017-10-03T04:52:15.754Z,98.10
2017-10-03T04:54:44.580Z,98.10
2017-10-03T04:57:13.414Z,98.00
2017-10-03T04:59:42.258Z,97.90
2017-10-03T05:02:11.082Z,97.90
2017-10-03T05:04:39.914Z,98.00
2017-10-03T05:07:09.517Z,98.00
2017-10-03T05:09:39.122Z,98.10
2017-10-03T05:12:07.946Z,98.10
2017-10-03T05:14:36.776Z,98.20
2017-10-03T05:17:05.610Z,98.10
2017-10-03T05:19:35.215Z,98.20
2017-10-03T05:22:04.810Z,98.20
2017-10-03T05:24:34.421Z,98.00
2017-10-03T05:27:04.021Z,98.00
2017-10-03T05:29:33.527Z,97.90
2017-10-03T05:32:02.391Z,97.90
2017-10-03T05:34:31.238Z,98.00
2017-10-03T05:37:00.078Z,98.00
2017-10-03T05:39:28.918Z,98.00
2017-10-03T05:41:57.754Z,98.00
2017-10-03T05:44:27.181Z,97.80
2017-10-03T05:46:56.028Z,97.70
2017-10-03T05:49:24.861Z,97.80
2017-10-03T05:51:53.739Z,97.70
2017-10-03T05:54:22.576Z,97.50
2017-10-03T05:56:51.413Z,97.40
2017-10-03T05:59:20.279Z,97.70
2017-10-03T06:01:49.116Z,97.50
2017-10-03T06:04:18.725Z,97.60
2017-10-03T06:06:47.565Z,97.60
2017-10-03T06:09:17.263Z,97.80
2017-10-03T06:11:47.007Z,97.40
2017-10-03T06:14:15.846Z,97.50
2017-10-03T06:16:45.249Z,97.40
2017-10-03T06:19:14.887Z,97.30
2017-10-03T06:21:43.722Z,97.30
2017-10-03T06:24:12.561Z,97.60
2017-10-03T06:26:41.390Z,97.60
2017-10-03T06:29:10.218Z,97.40
2017-10-03T06:31:39.811Z,97.50
2017-10-03T06:34:08.452Z,97.20
2017-10-03T06:36:38.054Z,97.30
2017-10-03T06:39:06.904Z,97.30
2017-10-03T06:41:35.733Z,97.20
2017-10-03T06:44:04.580Z,97.10
2017-10-03T06:46:33.426Z,97.20
2017-10-03T06:49:02.269Z,97.40
2017-10-03T06:51:31.878Z,97.30
2017-10-03T06:54:00.713Z,97.30
2017-10-03T06:56:29.561Z,97.50
2017-10-03T06:58:59.163Z,97.60
2017-10-03T07:01:27.997Z,97.60
2017-10-03T07:03:56.835Z,97.60
2017-10-03T07:06:25.483Z,97.70
2017-10-03T07:08:54.332Z,97.70
2017-10-03T07:11:23.940Z,97.80
2017-10-03T07:13:53.543Z,97.70
2017-10-03T07:16:22.380Z,97.70
2017-10-03T07:18:51.226Z,97.60
2017-10-03T07:21:20.653Z,98.50
2017-10-03T07:23:49.315Z,98.50
2017-10-03T07:26:18.917Z,97.40
2017-10-03T07:28:48.360Z,97.40
2017-10-03T07:31:17.195Z,95.80
2017-10-03T07:33:46.045Z,95.30
2017-10-03T07:36:14.896Z,95.60
2017-10-03T07:38:44.513Z,95.80
2017-10-03T07:41:14.109Z,96.00
2017-10-03T07:43:42.948Z,96.00
2017-10-03T07:46:11.802Z,96.00
2017-10-03T07:48:41.997Z,95.70
2017-10-03T07:51:10.827Z,95.70
2017-10-03T07:53:40.221Z,96.50
2017-10-03T07:56:09.613Z,96.50
2017-10-03T07:58:38.450Z,96.50
2017-10-03T08:01:07.287Z,96.60
2017-10-03T08:03:36.124Z,96.10
2017-10-03T08:06:04.965Z,95.80
2017-10-03T08:08:33.798Z,95.60
2017-10-03T08:11:02.634Z,95.60
2017-10-03T08:13:31.475Z,95.30
2017-10-03T08:16:00.298Z,95.20
2017-10-03T08:18:28.957Z,95.00
2017-10-03T08:20:57.800Z,95.20
2017-10-03T08:23:26.650Z,95.50
2017-10-03T08:25:55.493Z,95.30
2017-10-03T08:28:24.315Z,95.00
2017-10-03T08:30:53.170Z,94.90
2017-10-03T08:33:22.005Z,94.90
2017-10-03T08:35:50.851Z,94.80
2017-10-03T08:38:20.667Z,95.10
2017-10-03T08:40:49.510Z,94.90
2017-10-03T08:43:18.351Z,94.70
2017-10-03T08:45:47.170Z,94.60
2017-10-03T08:48:16.749Z,94.80
2017-10-03T08:50:45.589Z,94.90
2017-10-03T08:53:14.238Z,95.00
2017-10-03T08:55:44.048Z,94.90
2017-10-03T08:58:17.283Z,95.30
2017-10-03T09:00:45.988Z,95.30
2017-10-03T09:03:14.813Z,95.10
2017-10-03T09:05:44.224Z,95.30
2017-10-03T09:08:13.850Z,96.20
2017-10-03T09:10:43.121Z,96.20
2017-10-03T09:13:11.967Z,96.30
2017-10-03T09:15:41.877Z,96.50
2017-10-03T09:18:11.166Z,97.10
2017-10-03T09:20:39.716Z,97.30
2017-10-03T09:23:09.338Z,97.50
2017-10-03T09:25:38.953Z,97.50
2017-10-03T09:28:08.610Z,97.50
2017-10-03T09:30:38.014Z,97.80
2017-10-03T09:33:06.858Z,98.10
2017-10-03T09:35:35.730Z,98.00
2017-10-03T09:38:05.358Z,98.20
2017-10-03T09:40:36.198Z,98.20
2017-10-03T09:43:05.046Z,98.20
2017-10-03T09:45:33.882Z,98.40
2017-10-03T09:48:04.526Z,98.40
2017-10-03T09:50:33.391Z,98.40
2017-10-03T09:53:03.008Z,98.90
2017-10-03T09:55:31.869Z,98.90
2017-10-03T09:58:00.727Z,99.30
2017-10-03T10:00:29.581Z,99.30
2017-10-03T10:02:59.188Z,99.10
2017-10-03T10:05:28.793Z,99.20
2017-10-03T10:07:58.626Z,99.40
2017-10-03T10:10:27.515Z,99.40
2017-10-03T10:12:56.358Z,99.10
2017-10-03T10:15:25.198Z,99.20
2017-10-03T10:17:54.026Z,99.30
2017-10-03T10:20:22.870Z,99.10
2017-10-03T10:22:56.475Z,98.90
2017-10-03T10:25:25.334Z,98.70
2017-10-03T10:27:55.986Z,98.70
2017-10-03T10:30:25.242Z,98.30
2017-10-03T10:32:54.186Z,98.30
2017-10-03T10:35:23.022Z,97.70
2017-10-03T10:37:51.683Z,97.90
2017-10-03T10:40:21.380Z,97.90
2017-10-03T10:42:50.218Z,98.20
2017-10-03T10:45:20.007Z,97.80
2017-10-03T10:47:48.939Z,97.60
2017-10-03T10:50:17.818Z,97.30
2017-10-03T10:52:46.649Z,97.20
2017-10-03T10:55:16.143Z,96.90
2017-10-03T10:57:45.776Z,96.90
2017-10-03T11:00:14.626Z,96.90
2017-10-03T11:02:43.480Z,96.90
2017-10-03T11:05:12.339Z,96.30
2017-10-03T11:07:41.181Z,95.80
2017-10-03T11:10:10.114Z,95.40
2017-10-03T11:12:39.059Z,95.40
2017-10-03T11:15:07.910Z,95.10
2017-10-03T11:17:36.762Z,94.70
2017-10-03T11:20:05.672Z,94.30
2017-10-03T11:22:34.734Z,93.90
2017-10-03T11:25:04.598Z,93.00
2017-10-03T11:27:33.470Z,92.40
2017-10-03T11:30:03.648Z,91.70
2017-10-03T11:32:32.533Z,91.70
2017-10-03T11:35:01.381Z,90.90
2017-10-03T11:37:31.213Z,88.90
2017-10-03T11:40:00.925Z,88.80
2017-10-03T11:42:31.993Z,87.10
2017-10-03T11:45:00.845Z,86.10
2017-10-03T11:47:29.585Z,85.90
2017-10-03T11:49:58.425Z,85.70
2017-10-03T11:52:27.275Z,84.70
2017-10-03T11:54:56.514Z,83.90
2017-10-03T11:57:26.117Z,81.60
2017-10-03T11:59:55.738Z,81.40
2017-10-03T12:02:24.601Z,81.40
2017-10-03T12:04:54.259Z,80.70
2017-10-03T12:07:23.887Z,80.60
2017-10-03T12:09:52.818Z,80.10
2017-10-03T12:12:23.259Z,79.10
2017-10-03T12:15:03.321Z,78.70
2017-10-03T12:17:32.621Z,78.70
2017-10-03T12:20:01.508Z,78.40
2017-10-03T12:22:30.350Z,78.00
2017-10-03T12:24:59.305Z,77.80
2017-10-03T12:27:35.852Z,77.20
2017-10-03T12:30:07.010Z,76.10
2017-10-03T12:32:35.884Z,76.00
2017-10-03T12:35:08.409Z,75.40
2017-10-03T12:37:37.685Z,75.40
2017-10-03T12:40:06.558Z,75.00
2017-10-03T12:42:37.215Z,75.70
2017-10-03T12:45:06.070Z,76.40
2017-10-03T12:47:35.094Z,75.40
2017-10-03T12:50:03.980Z,74.80
2017-10-03T12:52:34.027Z,72.70
2017-10-03T12:55:02.904Z,72.70
2017-10-03T12:57:31.735Z,71.90
2017-10-03T13:00:00.595Z,70.10
2017-10-03T13:02:29.443Z,69.50
2017-10-03T13:04:58.347Z,68.70
2017-10-03T13:07:27.946Z,68.10
2017-10-03T13:09:56.792Z,67.50
2017-10-03T13:12:30.335Z,67.50
2017-10-03T13:15:01.724Z,67.00
2017-10-03T13:17:32.135Z,67.00
2017-10-03T13:20:02.098Z,67.90
2017-10-03T13:22:31.775Z,67.80
2017-10-03T13:25:00.610Z,69.70
2017-10-03T13:27:29.638Z,71.40
2017-10-03T13:29:59.247Z,74.50
2017-10-03T13:32:28.109Z,74.50
2017-10-03T13:34:59.540Z,75.60
2017-10-03T13:37:29.927Z,77.30
2017-10-03T13:42:36.414Z,78.70
2017-10-03T13:45:05.256Z,80.00
2017-10-03T13:47:36.366Z,80.80
2017-10-03T13:50:05.335Z,80.80
2017-10-03T13:52:36.219Z,82.00
2017-10-03T13:55:05.501Z,82.00
2017-10-03T14:00:27.994Z,82.30
2017-10-03T14:02:56.846Z,82.00
2017-10-03T14:05:25.715Z,82.00
2017-10-03T14:07:56.261Z,81.90
2017-10-03T14:10:25.397Z,81.80
2017-10-03T14:12:55.118Z,82.40
2017-10-03T14:15:24.058Z,81.80
2017-10-03T14:17:52.898Z,81.30
2017-10-03T14:20:23.839Z,79.80
2017-10-03T14:22:53.610Z,79.80
2017-10-03T14:30:30.083Z,75.30
2017-10-03T14:33:00.151Z,72.40
2017-10-03T14:35:30.831Z,72.40
2017-10-03T14:38:00.587Z,70.60
2017-10-03T14:40:30.072Z,70.60
2017-10-03T14:43:00.081Z,70.50
2017-10-03T14:45:29.452Z,69.20
2017-10-03T14:47:58.377Z,68.00
2017-10-03T14:53:02.700Z,67.00
2017-10-03T14:55:36.667Z,66.60
2017-10-03T14:58:05.974Z,65.40
2017-10-03T15:00:35.787Z,65.00
2017-10-03T15:03:04.767Z,64.30
2017-10-03T15:05:34.679Z,63.30
2017-10-03T15:08:03.539Z,63.00
2017-10-03T15:10:34.015Z,60.70
2017-10-03T15:13:05.252Z,60.60
2017-10-03T15:15:34.525Z,59.70
2017-10-03T15:18:03.102Z,58.60
2017-10-03T15:20:32.971Z,58.10
2017-10-03T15:23:02.171Z,58.10
2017-10-03T15:25:31.824Z,57.70
2017-10-03T15:28:00.729Z,58.10
2017-10-03T15:30:29.615Z,58.20
2017-10-03T15:32:58.558Z,58.10
2017-10-03T15:35:27.767Z,58.00
2017-10-03T15:37:57.354Z,58.60
2017-10-03T15:40:27.113Z,59.70
2017-10-03T15:42:56.523Z,59.80
2017-10-03T15:45:26.215Z,60.80
2017-10-03T15:47:55.470Z,60.80
2017-10-03T15:50:25.082Z,61.90
2017-10-03T15:52:57.681Z,62.90
2017-10-03T15:55:28.168Z,63.70
2017-10-03T16:00:35.193Z,65.60
2017-10-03T16:03:12.679Z,66.60
2017-10-03T16:05:42.645Z,67.50
2017-10-03T16:08:13.316Z,68.40
2017-10-03T16:10:43.641Z,69.00
2017-10-03T16:13:12.283Z,69.50
2017-10-03T16:15:44.041Z,69.90
2017-10-03T16:18:13.712Z,71.00
2017-10-03T16:20:43.609Z,71.00
2017-10-03T16:23:12.520Z,70.80
2017-10-03T16:25:41.407Z,70.80
2017-10-03T16:28:11.620Z,70.90
2017-10-03T16:30:40.479Z,73.00
2017-10-03T16:33:10.081Z,71.00
2017-10-03T16:35:38.802Z,70.90
2017-10-03T16:38:07.660Z,71.70
2017-10-03T16:40:37.412Z,70.90
2017-10-03T16:43:06.274Z,70.10
2017-10-03T16:45:35.883Z,70.40
2017-10-03T16:48:04.735Z,70.20
2017-10-03T16:50:33.608Z,70.00
2017-10-03T16:53:03.526Z,70.20
2017-10-03T16:55:32.384Z,69.60
2017-10-03T16:58:02.023Z,69.90
2017-10-03T17:00:30.861Z,69.70
2017-10-03T17:02:59.973Z,69.80
2017-10-03T17:05:29.575Z,69.20
2017-10-03T17:07:59.192Z,69.00
2017-10-03T17:10:28.822Z,68.70
2017-10-03T17:12:57.697Z,68.60
2017-10-03T17:15:26.537Z,68.70
2017-10-03T17:17:56.508Z,68.80
2017-10-03T17:20:25.033Z,69.20
2017-10-03T17:22:54.213Z,69.30
2017-10-03T17:25:23.741Z,70.90
2017-10-03T17:27:52.573Z,72.90
2017-10-03T17:30:22.215Z,74.30
2017-10-03T17:32:51.047Z,74.20
2017-10-03T17:35:20.454Z,74.60
2017-10-03T17:37:49.874Z,75.10
2017-10-03T17:40:19.518Z,75.80
2017-10-03T17:42:48.375Z,75.80
2017-10-03T17:45:17.982Z,76.40
2017-10-03T17:47:46.493Z,76.30
2017-10-03T17:50:15.329Z,76.70
2017-10-03T17:52:44.177Z,77.10
2017-10-03T17:55:13.029Z,77.20
2017-10-03T17:57:42.644Z,77.60
2017-10-03T18:00:11.576Z,77.40
2017-10-03T18:02:40.470Z,78.30
2017-10-03T18:05:09.339Z,78.80
2017-10-03T18:07:38.204Z,79.10
2017-10-03T18:10:07.047Z,79.40
2017-10-03T18:12:35.907Z,79.80
2017-10-03T18:15:05.602Z,80.00
2017-10-03T18:17:35.230Z,80.10
2017-10-03T18:20:03.735Z,80.00
2017-10-03T18:22:33.556Z,80.10
2017-10-03T18:25:02.407Z,80.20
2017-10-03T18:27:32.767Z,79.80
2017-10-03T18:30:01.607Z,79.70
2017-10-03T18:32:31.240Z,79.20
2017-10-03T18:35:00.837Z,79.20
2017-10-03T18:37:30.446Z,79.10
2017-10-03T18:40:00.264Z,79.00
2017-10-03T18:42:29.869Z,78.80
2017-10-03T18:44:59.329Z,79.10
2017-10-03T18:47:28.229Z,78.50
2017-10-03T18:49:58.016Z,78.20
2017-10-03T18:52:26.873Z,78.10
2017-10-03T18:54:56.506Z,78.20
2017-10-03T18:57:25.337Z,78.20
2017-10-03T18:59:54.268Z,78.10
2017-10-03T19:02:23.590Z,78.20
2017-10-03T19:04:52.422Z,78.20
2017-10-03T19:07:21.271Z,78.20
2017-10-03T19:09:50.171Z,78.30
2017-10-03T19:12:19.017Z,78.40
2017-10-03T19:14:48.574Z,78.40
2017-10-03T19:17:17.417Z,78.50
2017-10-03T19:19:46.248Z,78.50
2017-10-03T19:22:15.086Z,78.40
2017-10-03T19:24:43.922Z,78.40
2017-10-03T19:27:12.778Z,78.30
2017-10-03T19:29:41.622Z,78.40
2017-10-03T19:32:10.456Z,78.50
2017-10-03T19:34:39.290Z,78.30
2017-10-03T19:37:08.854Z,78.40
2017-10-03T19:39:39.943Z,78.40
2017-10-03T19:42:08.782Z,78.30
2017-10-03T19:44:37.637Z,78.40
2017-10-03T19:47:07.231Z,78.90
2017-10-03T19:49:36.081Z,78.20
2017-10-03T19:52:05.688Z,78.80
2017-10-03T19:54:34.525Z,78.10
2017-10-03T19:57:04.757Z,78.10
2017-10-03T19:59:33.603Z,78.00
2017-10-03T20:02:03.062Z,77.70
2017-10-03T20:04:32.013Z,77.50
2017-10-03T20:07:01.622Z,77.40
2017-10-03T20:09:31.384Z,77.20
2017-10-03T20:12:00.215Z,77.20
2017-10-03T20:14:30.773Z,77.10
2017-10-03T20:17:00.397Z,77.00
2017-10-03T20:19:29.231Z,77.00
2017-10-03T20:21:58.058Z,77.20
2017-10-03T20:24:26.890Z,77.30
2017-10-03T20:26:56.418Z,77.20
2017-10-03T20:29:25.258Z,77.20
2017-10-03T20:31:54.102Z,77.30
2017-10-03T20:34:22.922Z,77.40
2017-10-03T20:36:51.761Z,77.40
2017-10-03T20:39:20.408Z,77.40
2017-10-03T20:41:49.239Z,77.40
2017-10-03T20:44:20.134Z,77.80
2017-10-03T20:46:48.985Z,77.50
2017-10-03T20:49:17.828Z,77.70
2017-10-03T20:51:46.666Z,77.80
2017-10-03T20:54:15.314Z,77.90
2017-10-03T20:56:44.142Z,77.90
2017-10-03T20:59:13.746Z,77.90
2017-10-03T21:01:42.577Z,77.90
2017-10-03T21:04:11.407Z,78.60
2017-10-03T21:06:40.305Z,78.00
2017-10-03T21:09:09.151Z,77.90
2017-10-03T21:11:38.002Z,77.90
2017-10-03T21:14:06.917Z,77.90
2017-10-03T21:16:35.765Z,78.30
2017-10-03T21:19:04.602Z,77.70
2017-10-03T21:21:33.455Z,77.90
2017-10-03T21:24:02.287Z,77.70
2017-10-03T21:26:31.115Z,77.70
2017-10-03T21:28:59.949Z,77.70
2017-10-03T21:31:29.539Z,77.60
2017-10-03T21:33:58.457Z,77.60
2017-10-03T21:36:28.137Z,77.70
2017-10-03T21:38:56.984Z,77.70
2017-10-03T21:41:25.700Z,77.80
2017-10-03T21:43:54.343Z,77.70
2017-10-03T21:46:22.496Z,77.80
2017-10-03T21:48:52.098Z,77.90
2017-10-03T21:51:20.253Z,77.80
2017-10-03T21:53:49.083Z,77.90
2017-10-03T21:56:18.710Z,77.90
2017-10-03T21:58:47.588Z,77.80
2017-10-03T22:01:17.194Z,77.80
2017-10-03T22:03:46.047Z,77.70
2017-10-03T22:06:14.878Z,77.70
2017-10-03T22:08:43.744Z,77.70
2017-10-03T22:11:12.659Z,77.80
2017-10-03T22:13:42.256Z,77.90
2017-10-03T22:16:11.845Z,78.00
2017-10-03T22:18:40.677Z,77.90
2017-10-03T22:21:09.515Z,78.00
2017-10-03T22:23:38.362Z,78.00
2017-10-03T22:26:07.185Z,78.10
2017-10-03T22:28:36.026Z,78.20
2017-10-03T22:31:04.866Z,78.20
2017-10-03T22:33:33.716Z,78.10
2017-10-03T22:36:03.208Z,78.20
2017-10-03T22:38:32.811Z,78.20
2017-10-03T22:41:02.416Z,78.10
2017-10-03T22:43:32.018Z,78.20
2017-10-03T22:46:00.936Z,78.10
2017-10-03T22:48:29.775Z,78.30
2017-10-03T22:51:04.014Z,78.40
2017-10-03T22:53:32.841Z,78.60
2017-10-03T22:56:01.683Z,78.90
2017-10-03T22:58:30.517Z,78.90
2017-10-03T23:00:59.498Z,78.90
2017-10-03T23:03:29.099Z,79.20
2017-10-03T23:05:58.779Z,79.20
2017-10-03T23:08:27.615Z,79.10
2017-10-03T23:10:56.457Z,79.20
2017-10-03T23:13:25.309Z,79.50
2017-10-03T23:15:54.195Z,80.00
2017-10-03T23:18:23.087Z,80.50
2017-10-03T23:20:51.918Z,81.00
2017-10-03T23:23:20.759Z,81.20
2017-10-03T23:25:50.366Z,81.60
2017-10-03T23:28:19.958Z,82.00
2017-10-03T23:30:48.785Z,82.10
2017-10-03T23:33:17.619Z,82.20
2017-10-03T23:35:46.461Z,82.40
2017-10-03T23:38:15.292Z,82.30
2017-10-03T23:40:44.116Z,82.60
2017-10-03T23:43:13.709Z,82.80
2017-10-03T23:45:43.315Z,83.40
2017-10-03T23:48:12.166Z,82.90
2017-10-03T23:50:41.012Z,83.00
2017-10-03T23:53:10.609Z,82.90
2017-10-03T23:55:39.450Z,82.90
2017-10-03T23:58:08.303Z,83.00
